createdAt,value
2018-02-13T00:02:21.015Z,0.60
2018-02-13T00:04:48.645Z,0.60
2018-02-13T00:07:16.271Z,0.60
2018-02-13T00:09:43.893Z,0.60
2018-02-13T00:12:12.280Z,0.60
2018-02-13T00:14:39.912Z,0.60
2018-02-13T00:17:07.564Z,0.60
2018-02-13T00:19:35.174Z,0.60
2018-02-13T00:22:02.792Z,0.70
2018-02-13T00:24:30.428Z,0.60
2018-02-13T00:26:58.817Z,0.60
2018-02-13T00:29:27.208Z,0.60
2018-02-13T00:31:54.834Z,0.50
2018-02-13T00:34:22.458Z,0.60
2018-02-13T00:36:50.101Z,0.60
2018-02-13T00:39:17.732Z,0.60
2018-02-13T00:41:45.361Z,0.60
2018-02-13T00:44:12.984Z,0.50
2018-02-13T00:46:41.672Z,0.50
2018-02-13T00:49:10.060Z,0.50
2018-02-13T00:51:38.514Z,0.50
2018-02-13T00:54:06.080Z,0.50
2018-02-13T00:56:33.705Z,0.50
2018-02-13T00:59:01.324Z,0.50
2018-02-13T01:01:28.977Z,0.50
2018-02-13T01:03:56.604Z,0.50
2018-02-13T01:06:24.237Z,0.50
2018-02-13T01:08:52.624Z,0.40
2018-02-13T01:11:21.023Z,0.50
2018-02-13T01:13:49.405Z,0.40
2018-02-13T01:16:17.038Z,0.40
2018-02-13T01:18:44.655Z,0.40
2018-02-13T01:21:12.275Z,0.40
2018-02-13T01:23:40.257Z,0.40
2018-02-13T01:26:08.645Z,0.40
2018-02-13T01:28:37.038Z,0.40
2018-02-13T01:31:05.429Z,0.30
2018-02-13T01:33:33.062Z,0.30
2018-02-13T01:36:00.680Z,0.30
2018-02-13T01:38:28.312Z,0.30
2018-02-13T01:40:56.696Z,0.30
2018-02-13T01:43:25.126Z,0.30
2018-02-13T01:45:52.732Z,0.30
2018-02-13T01:48:20.716Z,0.20
2018-02-13T01:50:49.124Z,0.20
2018-02-13T01:53:16.745Z,0.20
2018-02-13T01:55:44.367Z,0.20
2018-02-13T01:58:13.018Z,0.20
2018-02-13T02:00:40.642Z,0.20
2018-02-13T02:03:08.268Z,0.20
2018-02-13T02:05:35.904Z,0.20
2018-02-13T02:08:03.528Z,0.30
2018-02-13T02:10:31.150Z,0.20
2018-02-13T02:12:58.772Z,0.20
2018-02-13T02:15:26.396Z,0.20
2018-02-13T02:17:54.019Z,0.10
2018-02-13T02:20:21.642Z,0.10
2018-02-13T02:22:49.269Z,0.10
2018-02-13T02:25:16.903Z,0.20
2018-02-13T02:27:44.520Z,0.20
2018-02-13T02:30:12.905Z,0.10
2018-02-13T02:35:29.584Z,0.10
2018-02-13T02:37:57.213Z,0.10
2018-02-13T02:40:24.836Z,0.10
2018-02-13T02:43:04.402Z,0.10
2018-02-13T02:45:32.789Z,0.10
2018-02-13T02:48:00.408Z,0.10
2018-02-13T02:50:28.063Z,0.00
2018-02-13T02:52:55.677Z,0.10
2018-02-13T02:55:24.064Z,-0.10
2018-02-13T02:57:52.020Z,-0.10
2018-02-13T03:00:20.576Z,-0.10
2018-02-13T03:02:48.197Z,-0.10
2018-02-13T03:05:15.820Z,-0.10
2018-02-13T03:07:43.457Z,-0.10
2018-02-13T03:10:11.088Z,-0.10
2018-02-13T03:12:39.791Z,-0.20
2018-02-13T03:15:07.420Z,-0.20
2018-02-13T03:17:35.048Z,-0.20
2018-02-13T03:20:03.091Z,-0.20
2018-02-13T03:22:30.713Z,-0.20
2018-02-13T03:24:58.356Z,-0.30
2018-02-13T03:27:25.997Z,-0.30
2018-02-13T03:29:53.672Z,-0.30
2018-02-13T03:32:21.296Z,-0.30
2018-02-13T03:34:48.936Z,-0.30
2018-02-13T03:37:16.564Z,-0.30
2018-02-13T03:39:44.191Z,-0.30
2018-02-13T03:42:11.829Z,-0.30
2018-02-13T03:44:42.799Z,-0.20
2018-02-13T03:47:10.409Z,-0.20
2018-02-13T03:49:38.076Z,-0.20
2018-02-13T03:52:05.712Z,-0.30
2018-02-13T03:54:34.120Z,-0.20
2018-02-13T03:57:01.748Z,-0.30
2018-02-13T03:59:29.371Z,-0.30
2018-02-13T04:01:56.996Z,-0.20
2018-02-13T04:04:25.389Z,-0.30
2018-02-13T04:06:53.007Z,-0.30
2018-02-13T04:09:20.640Z,-0.30
2018-02-13T04:11:48.268Z,-0.30
2018-02-13T04:14:16.661Z,-0.20
2018-02-13T04:16:45.074Z,-0.30
2018-02-13T04:19:12.692Z,-0.30
2018-02-13T04:21:40.320Z,-0.30
2018-02-13T04:24:07.956Z,-0.30
2018-02-13T04:26:36.504Z,-0.20
2018-02-13T04:29:04.150Z,-0.20
2018-02-13T04:31:31.768Z,-0.10
2018-02-13T04:33:59.396Z,-0.20
2018-02-13T04:36:27.024Z,-0.20
2018-02-13T04:38:54.663Z,-0.20
2018-02-13T04:41:23.064Z,-0.20
2018-02-13T04:43:50.692Z,-0.20
2018-02-13T04:46:19.098Z,-0.20
2018-02-13T04:48:47.488Z,-0.30
2018-02-13T04:51:15.112Z,-0.30
2018-02-13T04:53:42.740Z,-0.20
2018-02-13T04:56:11.255Z,-0.20
2018-02-13T04:58:38.887Z,-0.20
2018-02-13T05:01:06.512Z,-0.20
2018-02-13T05:03:34.144Z,-0.20
2018-02-13T05:06:01.802Z,-0.20
2018-02-13T05:08:29.458Z,-0.10
2018-02-13T05:10:57.072Z,-0.10
2018-02-13T05:13:24.695Z,-0.10
2018-02-13T05:15:52.329Z,-0.20
2018-02-13T05:18:20.717Z,-0.20
2018-02-13T05:20:48.339Z,-0.20
2018-02-13T05:23:16.736Z,-0.20
2018-02-13T05:25:44.360Z,-0.20
2018-02-13T05:28:11.984Z,-0.20
2018-02-13T05:30:40.412Z,-0.30
2018-02-13T05:33:08.032Z,-0.30
2018-02-13T05:35:36.464Z,-0.20
2018-02-13T05:38:04.083Z,-0.20
2018-02-13T05:40:32.478Z,-0.30
2018-02-13T05:43:00.868Z,-0.30
2018-02-13T05:45:28.500Z,-0.30
2018-02-13T05:47:56.176Z,-0.30
2018-02-13T05:50:23.804Z,-0.30
2018-02-13T05:52:51.430Z,-0.30
2018-02-13T05:55:19.825Z,-0.30
2018-02-13T05:57:47.446Z,-0.30
2018-02-13T06:00:15.295Z,-0.30
2018-02-13T06:02:42.912Z,-0.30
2018-02-13T06:05:11.308Z,-0.40
2018-02-13T06:07:38.936Z,-0.40
2018-02-13T06:10:06.561Z,-0.30
2018-02-13T06:12:34.194Z,-0.30
2018-02-13T06:15:02.590Z,-0.30
2018-02-13T06:17:30.217Z,-0.30
2018-02-13T06:19:57.881Z,-0.30
2018-02-13T06:22:25.508Z,-0.30
2018-02-13T06:24:53.152Z,-0.20
2018-02-13T06:27:20.796Z,-0.30
2018-02-13T06:29:49.196Z,-0.20
2018-02-13T06:32:16.824Z,-0.20
2018-02-13T06:34:44.460Z,-0.20
2018-02-13T06:37:12.084Z,-0.10
2018-02-13T06:39:40.473Z,-0.10
2018-02-13T06:42:08.129Z,-0.10
2018-02-13T06:44:36.516Z,-0.10
2018-02-13T06:47:04.148Z,-0.20
2018-02-13T06:49:31.795Z,-0.10
2018-02-13T06:51:59.426Z,-0.20
2018-02-13T06:54:27.058Z,-0.20
2018-02-13T06:56:54.688Z,-0.10
2018-02-13T06:59:22.328Z,-0.10
2018-02-13T07:01:49.965Z,-0.10
2018-02-13T07:04:17.590Z,-0.10
2018-02-13T07:06:45.224Z,-0.20
2018-02-13T07:09:12.856Z,-0.20
2018-02-13T07:11:40.472Z,-0.20
2018-02-13T07:14:08.096Z,-0.10
2018-02-13T07:16:35.750Z,-0.10
2018-02-13T07:19:03.555Z,-0.10
2018-02-13T07:21:31.192Z,-0.10
2018-02-13T07:23:58.821Z,-0.20
2018-02-13T07:26:26.444Z,-0.10
2018-02-13T07:28:54.880Z,-0.10
2018-02-13T07:31:22.503Z,-0.10
2018-02-13T07:33:50.128Z,0.00
2018-02-13T07:36:17.764Z,0.00
2018-02-13T07:38:45.398Z,0.00
2018-02-13T07:41:13.781Z,0.00
2018-02-13T07:43:41.404Z,0.00
2018-02-13T07:46:09.048Z,0.10
2018-02-13T07:48:36.668Z,0.10
2018-02-13T07:51:05.051Z,0.20
2018-02-13T07:53:33.451Z,0.20
2018-02-13T07:56:01.081Z,0.20
2018-02-13T07:58:28.703Z,0.30
2018-02-13T08:00:56.964Z,0.30
2018-02-13T08:03:24.541Z,0.40
2018-02-13T08:05:52.479Z,0.40
2018-02-13T08:08:20.873Z,0.40
2018-02-13T08:10:48.499Z,0.40
2018-02-13T08:13:16.120Z,0.40
2018-02-13T08:15:43.742Z,0.50
2018-02-13T08:18:11.599Z,0.50
2018-02-13T08:20:39.218Z,0.60
2018-02-13T08:23:06.836Z,0.60
2018-02-13T08:25:34.463Z,0.60
2018-02-13T08:28:02.080Z,0.70
2018-02-13T08:30:29.705Z,0.70
2018-02-13T08:32:57.335Z,0.80
2018-02-13T08:35:25.741Z,0.90
2018-02-13T08:37:53.369Z,0.90
2018-02-13T08:40:21.001Z,1.00
2018-02-13T08:42:48.652Z,1.00
2018-02-13T08:45:16.288Z,1.00
2018-02-13T08:47:44.680Z,1.10
2018-02-13T08:50:13.059Z,1.20
2018-02-13T08:52:40.679Z,1.20
2018-02-13T08:55:08.324Z,1.20
2018-02-13T08:57:35.932Z,1.30
2018-02-13T09:00:03.588Z,1.30
2018-02-13T09:02:31.257Z,1.40
2018-02-13T09:04:58.880Z,1.40
2018-02-13T09:07:26.495Z,1.50
2018-02-13T09:09:54.120Z,1.60
2018-02-13T09:12:21.736Z,1.70
2018-02-13T09:14:49.351Z,1.80
2018-02-13T09:17:16.982Z,1.90
2018-02-13T09:19:45.373Z,2.10
2018-02-13T09:22:13.760Z,2.20
2018-02-13T09:24:41.387Z,2.20
2018-02-13T09:27:09.001Z,2.30
2018-02-13T09:29:36.617Z,2.40
2018-02-13T09:32:04.233Z,2.50
2018-02-13T09:34:31.861Z,2.50
2018-02-13T09:36:59.729Z,2.60
2018-02-13T09:39:27.356Z,2.70
2018-02-13T09:41:54.971Z,2.80
2018-02-13T09:44:22.588Z,2.90
2018-02-13T09:46:50.245Z,3.10
2018-02-13T09:49:17.863Z,3.20
2018-02-13T09:51:45.479Z,3.30
2018-02-13T09:54:13.104Z,3.30
2018-02-13T09:56:41.493Z,3.50
2018-02-13T09:59:09.869Z,3.50
2018-02-13T10:01:38.248Z,3.70
2018-02-13T10:04:06.624Z,3.80
2018-02-13T10:06:34.240Z,3.80
2018-02-13T10:09:01.864Z,3.70
2018-02-13T10:11:29.480Z,3.80
2018-02-13T10:13:57.113Z,3.90
2018-02-13T10:16:25.497Z,4.00
2018-02-13T10:18:53.880Z,4.10
2018-02-13T10:21:21.500Z,4.10
2018-02-13T10:23:49.112Z,4.30
2018-02-13T10:26:17.485Z,4.50
2018-02-13T10:28:45.869Z,4.60
2018-02-13T10:31:14.260Z,4.80
2018-02-13T10:33:41.885Z,4.70
2018-02-13T10:36:09.503Z,4.70
2018-02-13T10:38:37.128Z,4.80
2018-02-13T10:41:04.780Z,4.90
2018-02-13T10:43:32.371Z,4.80
2018-02-13T10:46:00.761Z,5.10
2018-02-13T10:48:29.156Z,5.10
2018-02-13T10:50:56.776Z,5.10
2018-02-13T10:53:24.396Z,5.10
2018-02-13T10:55:52.035Z,5.30
2018-02-13T10:58:19.651Z,5.40
2018-02-13T11:00:47.287Z,5.30
2018-02-13T11:03:14.889Z,5.40
2018-02-13T11:05:43.132Z,5.60
2018-02-13T11:08:10.760Z,5.60
2018-02-13T11:10:38.387Z,5.80
2018-02-13T11:13:06.016Z,5.80
2018-02-13T11:15:34.404Z,5.90
2018-02-13T11:18:02.810Z,5.90
2018-02-13T11:20:31.177Z,6.10
2018-02-13T11:22:59.556Z,6.10
2018-02-13T11:25:40.050Z,6.20
2018-02-13T11:28:07.660Z,6.10
2018-02-13T11:30:35.276Z,5.90
2018-02-13T11:33:02.896Z,6.00
2018-02-13T11:35:30.516Z,6.30
2018-02-13T11:37:58.131Z,6.50
2018-02-13T11:40:26.522Z,6.60
2018-02-13T11:42:54.889Z,6.50
2018-02-13T11:45:22.504Z,6.50
2018-02-13T11:47:50.133Z,6.50
2018-02-13T11:50:18.532Z,6.40
2018-02-13T11:52:46.145Z,6.40
2018-02-13T11:55:13.760Z,6.50
2018-02-13T11:57:42.151Z,6.90
2018-02-13T12:00:09.781Z,6.90
2018-02-13T12:02:38.168Z,6.90
2018-02-13T12:05:05.789Z,6.90
2018-02-13T12:07:33.399Z,6.90
2018-02-13T12:10:01.021Z,7.10
2018-02-13T12:12:28.659Z,7.30
2018-02-13T12:14:56.281Z,7.40
2018-02-13T12:17:23.895Z,7.70
2018-02-13T12:19:51.520Z,7.80
2018-02-13T12:22:19.137Z,7.80
2018-02-13T12:24:46.760Z,7.70
2018-02-13T12:27:14.391Z,7.80
2018-02-13T12:29:42.020Z,7.90
2018-02-13T12:32:10.417Z,8.30
2018-02-13T12:34:38.037Z,8.30
2018-02-13T12:37:05.656Z,8.40
2018-02-13T12:39:33.268Z,8.80
2018-02-13T12:42:01.660Z,9.70
2018-02-13T12:44:29.281Z,9.70
2018-02-13T12:46:56.901Z,9.80
2018-02-13T12:49:25.311Z,10.50
2018-02-13T12:51:53.688Z,11.30
2018-02-13T12:54:22.380Z,11.20
2018-02-13T12:56:50.352Z,12.00
2018-02-13T12:59:17.972Z,11.80
2018-02-13T13:01:45.609Z,12.40
2018-02-13T13:04:13.220Z,12.40
2018-02-13T13:06:40.831Z,12.60
2018-02-13T13:09:08.488Z,12.20
2018-02-13T13:11:36.196Z,11.80
2018-02-13T13:14:11.364Z,12.60
2018-02-13T13:16:39.743Z,12.50
2018-02-13T13:19:08.153Z,12.40
2018-02-13T13:21:35.776Z,12.40
2018-02-13T13:24:03.431Z,12.80
2018-02-13T13:26:31.051Z,12.90
2018-02-13T13:28:58.702Z,12.90
2018-02-13T13:31:27.085Z,13.70
2018-02-13T13:33:55.468Z,12.40
2018-02-13T13:36:23.872Z,12.30
2018-02-13T13:38:51.503Z,12.20
2018-02-13T13:41:24.068Z,12.70
2018-02-13T13:43:51.683Z,11.80
2018-02-13T13:46:19.299Z,10.80
2018-02-13T13:48:46.916Z,9.90
2018-02-13T13:51:14.536Z,9.50
2018-02-13T13:53:42.168Z,9.00
2018-02-13T13:56:09.850Z,9.60
2018-02-13T13:58:43.938Z,10.30
2018-02-13T14:04:01.228Z,11.10
2018-02-13T14:06:28.852Z,11.10
2018-02-13T14:08:56.486Z,10.80
2018-02-13T14:11:24.112Z,11.00
2018-02-13T14:13:51.732Z,10.50
2018-02-13T14:16:19.344Z,9.90
2018-02-13T14:18:46.968Z,9.50
2018-02-13T14:21:14.583Z,9.20
2018-02-13T14:23:42.197Z,8.70
2018-02-13T14:26:09.820Z,8.70
2018-02-13T14:28:37.440Z,8.40
2018-02-13T14:31:05.076Z,8.70
2018-02-13T14:33:33.481Z,7.90
2018-02-13T14:36:01.096Z,7.90
2018-02-13T14:38:28.716Z,8.10
2018-02-13T14:40:56.336Z,8.10
2018-02-13T14:43:23.982Z,7.60
2018-02-13T14:45:51.584Z,7.40
2018-02-13T14:48:19.967Z,7.20
2018-02-13T14:50:48.345Z,7.20
2018-02-13T14:53:16.727Z,7.30
2018-02-13T14:55:45.109Z,7.10
2018-02-13T14:58:23.256Z,6.80
2018-02-13T15:00:51.355Z,6.80
2018-02-13T15:03:18.964Z,6.60
2018-02-13T15:05:46.943Z,6.50
2018-02-13T15:08:15.324Z,6.50
2018-02-13T15:10:42.936Z,6.50
2018-02-13T15:13:10.564Z,6.50
2018-02-13T15:15:38.180Z,6.50
2018-02-13T15:18:06.768Z,6.30
2018-02-13T15:20:34.478Z,6.40
2018-02-13T15:23:02.368Z,6.50
2018-02-13T15:25:29.977Z,6.40
2018-02-13T15:27:57.595Z,6.30
2018-02-13T15:30:25.216Z,6.20
2018-02-13T15:32:52.827Z,6.10
2018-02-13T15:35:20.452Z,6.10
2018-02-13T15:37:48.206Z,6.00
2018-02-13T15:40:16.050Z,5.90
2018-02-13T15:42:50.152Z,5.80
2018-02-13T15:45:17.775Z,5.60
2018-02-13T15:47:45.461Z,5.50
2018-02-13T15:50:13.324Z,5.40
2018-02-13T15:52:41.700Z,5.30
2018-02-13T15:55:09.317Z,5.30
2018-02-13T15:57:36.928Z,5.30
2018-02-13T16:00:04.543Z,5.30
2018-02-13T16:02:32.157Z,5.10
2018-02-13T16:05:00.556Z,5.00
2018-02-13T16:07:28.952Z,4.90
2018-02-13T16:09:56.556Z,4.90
2018-02-13T16:12:24.179Z,4.90
2018-02-13T16:14:51.805Z,4.70
2018-02-13T16:17:19.422Z,4.60
2018-02-13T16:19:47.045Z,4.30
2018-02-13T16:22:14.667Z,4.30
2018-02-13T16:24:42.280Z,4.20
2018-02-13T16:27:09.899Z,4.20
2018-02-13T16:29:37.536Z,4.00
2018-02-13T16:32:05.915Z,3.90
2018-02-13T16:34:34.300Z,3.90
2018-02-13T16:37:02.676Z,3.80
2018-02-13T16:39:31.047Z,3.70
2018-02-13T16:42:02.063Z,3.70
2018-02-13T16:44:35.440Z,3.60
2018-02-13T16:47:03.082Z,3.50
2018-02-13T16:49:30.690Z,3.40
2018-02-13T16:51:59.320Z,3.40
2018-02-13T16:54:27.721Z,3.40
2018-02-13T16:56:55.308Z,3.30
2018-02-13T16:59:23.176Z,3.30
2018-02-13T17:01:50.796Z,3.20
2018-02-13T17:04:18.408Z,3.10
2018-02-13T17:06:46.021Z,3.10
2018-02-13T17:09:13.648Z,3.10
2018-02-13T17:11:41.272Z,3.10
2018-02-13T17:14:09.656Z,3.00
2018-02-13T17:16:38.046Z,3.00
2018-02-13T17:19:06.418Z,3.00
2018-02-13T17:21:34.801Z,2.90
2018-02-13T17:24:09.816Z,2.90
2018-02-13T17:26:37.423Z,2.90
2018-02-13T17:29:06.054Z,2.80
2018-02-13T17:31:33.688Z,2.40
2018-02-13T17:34:01.299Z,2.20
2018-02-13T17:36:28.935Z,2.00
2018-02-13T17:38:56.577Z,1.90
2018-02-13T17:41:24.196Z,1.80
2018-02-13T17:43:51.817Z,1.80
2018-02-13T17:46:19.440Z,1.80
2018-02-13T17:48:47.064Z,1.80
2018-02-13T17:51:14.701Z,1.80
2018-02-13T17:53:42.343Z,1.70
2018-02-13T17:56:10.733Z,1.50
2018-02-13T17:58:39.153Z,1.40
2018-02-13T18:01:06.769Z,1.30
2018-02-13T18:03:35.168Z,1.10
2018-02-13T18:06:06.590Z,1.00
2018-02-13T18:08:34.224Z,1.10
2018-02-13T18:11:01.872Z,1.10
2018-02-13T18:13:29.516Z,1.10
2018-02-13T18:15:57.202Z,1.10
2018-02-13T18:18:24.821Z,1.10
2018-02-13T18:20:52.455Z,1.00
2018-02-13T18:23:20.104Z,1.10
2018-02-13T18:25:47.735Z,1.00
2018-02-13T18:28:16.127Z,1.00
2018-02-13T18:30:43.771Z,1.00
2018-02-13T18:33:22.045Z,1.00
2018-02-13T18:35:49.667Z,0.90
2018-02-13T18:38:17.297Z,0.80
2018-02-13T18:40:44.924Z,0.70
2018-02-13T18:43:12.549Z,0.60
2018-02-13T18:45:40.948Z,0.50
2018-02-13T18:48:09.332Z,0.50
2018-02-13T18:50:36.964Z,0.50
2018-02-13T18:55:32.235Z,0.40
2018-02-13T18:57:59.852Z,0.40
2018-02-13T19:00:27.475Z,0.30
2018-02-13T19:02:55.096Z,0.20
2018-02-13T19:05:23.505Z,0.00
2018-02-13T19:07:51.895Z,0.00
2018-02-13T19:10:19.517Z,0.00
2018-02-13T19:12:47.144Z,0.10
2018-02-13T19:15:14.764Z,0.00
2018-02-13T19:17:42.384Z,0.00
2018-02-13T19:20:10.028Z,-0.10
2018-02-13T19:22:37.663Z,-0.20
2018-02-13T19:25:05.338Z,-0.10
2018-02-13T19:27:32.991Z,-0.10
2018-02-13T19:30:07.496Z,-0.20
2018-02-13T19:32:35.131Z,-0.10
2018-02-13T19:35:02.768Z,-0.20
2018-02-13T19:37:31.156Z,-0.30
2018-02-13T19:39:59.549Z,-0.30
2018-02-13T19:42:41.829Z,-0.40
2018-02-13T19:45:10.227Z,-0.40
2018-02-13T19:47:37.857Z,-0.50
2018-02-13T19:50:05.489Z,-0.30
2018-02-13T19:52:33.128Z,-0.40
2018-02-13T19:55:00.806Z,-0.50
2018-02-13T19:57:28.424Z,-0.50
2018-02-13T19:59:56.082Z,-0.60
2018-02-13T20:02:23.711Z,-0.70
2018-02-13T20:04:51.352Z,-0.60
2018-02-13T20:07:19.748Z,-0.60
2018-02-13T20:09:47.372Z,-0.70
2018-02-13T20:12:15.018Z,-0.60
2018-02-13T20:14:42.640Z,-0.80
2018-02-13T20:17:10.276Z,-0.80
2018-02-13T20:19:37.912Z,-0.90
2018-02-13T20:22:16.221Z,-0.90
2018-02-13T20:24:43.848Z,-0.90
2018-02-13T20:27:11.484Z,-0.90
2018-02-13T20:29:39.115Z,-0.90
2018-02-13T20:32:06.743Z,-1.00
2018-02-13T20:34:34.376Z,-1.10
2018-02-13T20:37:02.016Z,-1.10
2018-02-13T20:39:29.644Z,-1.10
2018-02-13T20:41:57.268Z,-1.10
2018-02-13T20:44:24.898Z,-1.00
2018-02-13T20:46:52.532Z,-0.90
2018-02-13T20:49:20.923Z,-1.00
2018-02-13T20:51:49.496Z,-1.10
2018-02-13T20:54:17.960Z,-1.10
2018-02-13T20:56:46.388Z,-1.10
2018-02-13T20:59:14.020Z,-1.20
2018-02-13T21:01:41.651Z,-1.30
2018-02-13T21:04:09.290Z,-1.30
2018-02-13T21:06:36.980Z,-1.40
2018-02-13T21:09:04.648Z,-1.40
2018-02-13T21:11:32.303Z,-1.40
2018-02-13T21:14:00.784Z,-1.30
2018-02-13T21:16:28.412Z,-1.30
2018-02-13T21:18:56.828Z,-1.40
2018-02-13T21:21:24.492Z,-1.50
2018-02-13T21:23:52.115Z,-1.50
2018-02-13T21:26:19.958Z,-1.60
2018-02-13T21:28:47.608Z,-1.60
2018-02-13T21:31:15.264Z,-1.70
2018-02-13T21:33:42.895Z,-1.70
2018-02-13T21:36:11.230Z,-1.70
2018-02-13T21:38:38.900Z,-1.70
2018-02-13T21:41:07.516Z,-1.70
2018-02-13T21:43:35.160Z,-1.70
2018-02-13T21:46:02.820Z,-1.70
2018-02-13T21:48:31.448Z,-1.70
2018-02-13T21:50:59.098Z,-1.80
2018-02-13T21:53:26.740Z,-1.80
2018-02-13T21:55:54.494Z,-1.90
2018-02-13T21:58:22.185Z,-1.90
2018-02-13T22:00:50.284Z,-1.80
2018-02-13T22:03:18.000Z,-1.90
2018-02-13T22:05:46.386Z,-1.90
2018-02-13T22:08:14.013Z,-1.90
2018-02-13T22:10:41.932Z,-1.90
2018-02-13T22:13:09.598Z,-2.00
2018-02-13T22:15:37.256Z,-1.90
2018-02-13T22:18:04.890Z,-2.00
2018-02-13T22:20:32.543Z,-2.00
2018-02-13T22:23:00.164Z,-2.00
2018-02-13T22:25:27.788Z,-2.00
2018-02-13T22:27:55.439Z,-2.00
2018-02-13T22:30:23.081Z,-1.90
2018-02-13T22:32:50.728Z,-2.00
2018-02-13T22:35:18.389Z,-2.00
2018-02-13T22:37:46.190Z,-2.10
2018-02-13T22:40:13.783Z,-2.10
2018-02-13T22:42:41.436Z,-2.10
2018-02-13T22:45:09.091Z,-2.10
2018-02-13T22:47:36.730Z,-2.10
2018-02-13T22:50:04.390Z,-2.00
2018-02-13T22:52:32.106Z,-1.80
2018-02-13T22:54:59.712Z,-1.60
2018-02-13T22:57:27.353Z,-1.30
2018-02-13T22:59:54.980Z,-1.00
2018-02-13T23:02:23.632Z,-0.90
2018-02-13T23:04:51.283Z,-0.80
2018-02-13T23:07:18.916Z,-0.90
2018-02-13T23:09:46.616Z,-0.90
2018-02-13T23:12:15.044Z,-1.20
2018-02-13T23:14:42.661Z,-1.20
2018-02-13T23:17:11.110Z,-1.30
2018-02-13T23:19:38.788Z,-1.40
2018-02-13T23:22:06.406Z,-1.40
2018-02-13T23:24:34.115Z,-1.50
2018-02-13T23:27:01.748Z,-1.60
2018-02-13T23:29:29.376Z,-1.70
2018-02-13T23:31:57.015Z,-1.80
2018-02-13T23:34:24.772Z,-1.90
2018-02-13T23:36:52.511Z,-1.90
2018-02-13T23:39:20.163Z,-1.90
2018-02-13T23:41:47.834Z,-1.80
2018-02-13T23:44:15.641Z,-1.80
2018-02-13T23:46:43.374Z,-1.90
2018-02-13T23:49:11.037Z,-1.90
2018-02-13T23:51:39.531Z,-2.00
2018-02-13T23:54:07.203Z,-2.00
2018-02-13T23:56:34.888Z,-2.00
2018-02-13T23:59:02.643Z,-2.00
